createdAt,value
2018-05-17T00:01:54.734Z,5.07
2018-05-17T00:04:22.327Z,5.77
2018-05-17T00:06:49.942Z,5.70
2018-05-17T00:09:18.317Z,5.57
2018-05-17T00:11:45.926Z,7.33
2018-05-17T00:14:13.534Z,6.83
2018-05-17T00:16:41.918Z,6.90
2018-05-17T00:19:09.529Z,6.97
2018-05-17T00:21:37.126Z,9.67
2018-05-17T00:24:04.763Z,8.27
2018-05-17T00:26:32.370Z,7.90
2018-05-17T00:28:59.999Z,8.77
2018-05-17T00:31:27.632Z,8.13
2018-05-17T00:33:56.022Z,6.57
2018-05-17T00:36:23.622Z,7.93
2018-05-17T00:38:52.038Z,8.03
2018-05-17T00:41:19.678Z,7.07
2018-05-17T00:43:47.295Z,8.77
2018-05-17T00:46:14.910Z,8.30
2018-05-17T00:48:42.515Z,9.57
2018-05-17T00:51:10.111Z,9.40
2018-05-17T00:53:38.494Z,9.05
2018-05-17T00:56:06.862Z,10.23
2018-05-17T00:58:34.479Z,10.00
2018-05-17T01:01:02.110Z,10.87
2018-05-17T01:03:29.713Z,11.93
2018-05-17T01:05:57.323Z,12.53
2018-05-17T01:08:25.242Z,11.63
2018-05-17T01:10:52.850Z,11.23
2018-05-17T01:13:20.462Z,10.23
2018-05-17T01:15:48.108Z,10.80
2018-05-17T01:18:15.718Z,11.67
2018-05-17T01:20:44.094Z,11.10
2018-05-17T01:23:12.514Z,10.30
2018-05-17T01:25:40.121Z,9.53
2018-05-17T01:28:08.517Z,10.03
2018-05-17T01:30:36.165Z,12.00
2018-05-17T01:33:03.795Z,11.70
2018-05-17T01:35:31.403Z,10.80
2018-05-17T01:38:10.634Z,12.17
2018-05-17T01:40:38.250Z,11.30
2018-05-17T01:43:05.866Z,11.00
2018-05-17T01:45:33.498Z,12.80
2018-05-17T01:48:01.122Z,13.90
2018-05-17T01:50:28.722Z,14.57
2018-05-17T01:52:56.367Z,16.30
2018-05-17T01:55:23.966Z,11.83
2018-05-17T01:57:51.572Z,13.97
2018-05-17T02:00:19.214Z,15.30
2018-05-17T02:02:46.825Z,15.70
2018-05-17T02:05:15.195Z,14.13
2018-05-17T02:07:42.849Z,15.33
2018-05-17T02:10:10.454Z,14.60
2018-05-17T02:12:38.062Z,11.20
2018-05-17T02:15:05.695Z,14.77
2018-05-17T02:17:33.294Z,17.23
2018-05-17T02:20:00.917Z,18.00
2018-05-17T02:22:28.551Z,18.23
2018-05-17T02:24:56.150Z,21.10
2018-05-17T02:27:23.796Z,17.67
2018-05-17T02:29:51.430Z,15.43
2018-05-17T02:32:19.042Z,17.30
2018-05-17T02:34:46.694Z,15.87
2018-05-17T02:37:14.331Z,18.23
2018-05-17T02:39:42.003Z,15.20
2018-05-17T02:42:09.606Z,16.77
2018-05-17T02:44:37.236Z,16.57
2018-05-17T02:47:04.841Z,16.57
2018-05-17T02:49:32.455Z,14.07
2018-05-17T02:52:00.070Z,15.10
2018-05-17T02:54:27.671Z,14.17
2018-05-17T02:56:55.274Z,15.60
2018-05-17T02:59:22.910Z,17.30
2018-05-17T03:01:50.546Z,15.77
2018-05-17T03:04:18.180Z,14.00
2018-05-17T03:06:45.846Z,12.37
2018-05-17T03:09:13.454Z,13.23
2018-05-17T03:11:41.058Z,12.97
2018-05-17T03:14:08.699Z,11.40
2018-05-17T03:16:37.074Z,12.60
2018-05-17T03:19:04.717Z,11.83
2018-05-17T03:21:32.421Z,12.60
2018-05-17T03:24:00.781Z,9.87
2018-05-17T03:26:29.146Z,8.77
2018-05-17T03:28:56.779Z,8.70
2018-05-17T03:31:24.380Z,7.77
2018-05-17T03:33:51.993Z,7.40
2018-05-17T03:36:19.630Z,7.47
2018-05-17T03:38:47.262Z,7.33
2018-05-17T03:41:14.914Z,7.00
2018-05-17T03:43:42.537Z,6.90
2018-05-17T03:46:10.137Z,6.87
2018-05-17T03:48:37.738Z,6.23
2018-05-17T03:51:05.442Z,5.80
2018-05-17T03:53:33.002Z,6.07
2018-05-17T03:56:00.601Z,5.90
2018-05-17T03:58:28.359Z,5.60
2018-05-17T04:01:08.477Z,5.20
2018-05-17T04:03:47.766Z,6.07
2018-05-17T04:06:28.074Z,5.50
2018-05-17T04:08:55.706Z,5.43
2018-05-17T04:11:23.298Z,5.50
2018-05-17T04:13:50.959Z,5.03
2018-05-17T04:16:18.559Z,5.10
2018-05-17T04:18:46.218Z,5.07
2018-05-17T04:21:13.831Z,4.43
2018-05-17T04:23:41.446Z,4.77
2018-05-17T04:26:09.041Z,4.33
2018-05-17T04:28:36.643Z,3.87
2018-05-17T04:31:04.279Z,4.60
2018-05-17T04:33:31.895Z,4.57
2018-05-17T04:35:59.545Z,4.50
2018-05-17T04:38:27.162Z,4.07
2018-05-17T04:40:54.788Z,3.97
2018-05-17T04:43:22.426Z,3.93
2018-05-17T04:45:50.063Z,4.43
2018-05-17T04:48:17.691Z,4.00
2018-05-17T04:50:45.328Z,3.70
2018-05-17T04:53:12.946Z,4.00
2018-05-17T04:55:41.324Z,3.57
2018-05-17T04:58:09.709Z,3.80
2018-05-17T05:00:38.130Z,3.97
2018-05-17T05:03:05.749Z,4.00
2018-05-17T05:05:33.394Z,3.93
2018-05-17T05:08:01.033Z,3.77
2018-05-17T05:10:28.690Z,3.87
2018-05-17T05:12:56.298Z,3.90
2018-05-17T05:15:23.922Z,3.80
2018-05-17T05:17:51.539Z,4.23
2018-05-17T05:20:19.159Z,3.67
2018-05-17T05:22:47.589Z,4.10
2018-05-17T05:25:15.377Z,4.10
2018-05-17T05:27:42.993Z,4.33
2018-05-17T05:30:10.618Z,3.92
2018-05-17T05:32:38.218Z,4.20
2018-05-17T05:35:05.831Z,3.60
2018-05-17T05:37:33.550Z,3.80
2018-05-17T05:40:01.183Z,4.30
2018-05-17T05:42:28.731Z,4.23
2018-05-17T05:44:57.114Z,4.30
2018-05-17T05:47:25.496Z,4.10
2018-05-17T05:49:53.905Z,4.20
2018-05-17T05:52:21.538Z,4.40
2018-05-17T05:54:49.911Z,4.33
2018-05-17T05:57:17.511Z,4.37
2018-05-17T05:59:45.904Z,4.33
2018-05-17T06:02:13.525Z,3.70
2018-05-17T06:04:41.134Z,3.50
2018-05-17T06:07:08.790Z,3.53
2018-05-17T06:09:36.449Z,4.27
2018-05-17T06:12:04.058Z,3.63
2018-05-17T06:14:31.702Z,3.80
2018-05-17T06:16:59.314Z,3.80
2018-05-17T06:19:27.912Z,3.10
2018-05-17T06:21:55.518Z,3.87
2018-05-17T06:24:23.887Z,3.57
2018-05-17T06:26:51.500Z,3.67
2018-05-17T06:29:19.175Z,3.73
2018-05-17T06:31:46.799Z,3.60
2018-05-17T06:34:14.439Z,3.53
2018-05-17T06:36:42.059Z,3.43
2018-05-17T06:39:09.667Z,3.70
2018-05-17T06:41:38.039Z,3.17
2018-05-17T06:44:06.711Z,3.40
2018-05-17T06:46:34.375Z,3.60
2018-05-17T06:49:02.766Z,3.57
2018-05-17T06:51:31.164Z,3.03
2018-05-17T06:53:58.798Z,3.53
2018-05-17T06:56:26.428Z,3.60
2018-05-17T06:58:54.094Z,3.47
2018-05-17T07:01:21.703Z,3.60
2018-05-17T07:03:49.318Z,3.00
2018-05-17T07:06:16.954Z,3.83
2018-05-17T07:08:44.556Z,3.70
2018-05-17T07:11:12.938Z,3.60
2018-05-17T07:13:40.582Z,3.83
2018-05-17T07:16:08.202Z,3.70
2018-05-17T07:18:36.219Z,3.57
2018-05-17T07:21:03.473Z,3.70
2018-05-17T07:23:31.082Z,3.93
2018-05-17T07:25:58.677Z,4.10
2018-05-17T07:28:26.286Z,3.80
2018-05-17T07:30:53.886Z,4.27
2018-05-17T07:33:21.483Z,4.03
2018-05-17T07:35:49.854Z,4.10
2018-05-17T07:38:17.458Z,3.90
2018-05-17T07:40:45.083Z,4.27
2018-05-17T07:43:13.454Z,4.23
2018-05-17T07:45:41.097Z,4.00
2018-05-17T07:48:08.705Z,4.07
2018-05-17T07:50:37.460Z,4.13
2018-05-17T07:53:05.087Z,4.67
2018-05-17T07:55:32.711Z,4.50
2018-05-17T07:58:00.362Z,4.27
2018-05-17T08:00:28.942Z,4.97
2018-05-17T08:02:56.492Z,4.00
2018-05-17T08:05:24.881Z,4.47
2018-05-17T08:07:53.255Z,4.93
2018-05-17T08:10:21.678Z,4.37
2018-05-17T08:12:49.265Z,4.40
2018-05-17T08:15:16.862Z,4.50
2018-05-17T08:17:44.482Z,4.50
2018-05-17T08:20:12.102Z,4.30
2018-05-17T08:22:40.470Z,4.30
2018-05-17T08:25:08.528Z,4.10
2018-05-17T08:27:36.966Z,4.57
2018-05-17T08:30:04.566Z,4.17
2018-05-17T08:32:32.170Z,4.00
2018-05-17T08:34:59.823Z,4.10
2018-05-17T08:37:28.182Z,4.40
2018-05-17T08:39:55.779Z,4.40
2018-05-17T08:42:24.306Z,4.30
2018-05-17T08:44:54.870Z,4.73
2018-05-17T08:47:22.539Z,4.00
2018-05-17T08:49:50.201Z,4.20
2018-05-17T08:52:17.797Z,4.20
2018-05-17T08:54:45.416Z,4.00
2018-05-17T08:57:13.027Z,3.90
2018-05-17T09:02:23.458Z,3.67
2018-05-17T09:04:51.062Z,3.90
2018-05-17T09:07:18.663Z,3.43
2018-05-17T09:09:46.276Z,3.83
2018-05-17T09:12:13.882Z,3.60
2018-05-17T09:14:42.293Z,3.40
2018-05-17T09:17:10.653Z,3.50
2018-05-17T09:19:38.248Z,3.80
2018-05-17T09:22:06.830Z,3.67
2018-05-17T09:24:34.470Z,3.90
2018-05-17T09:27:02.070Z,4.17
2018-05-17T09:29:29.674Z,3.67
2018-05-17T09:31:57.306Z,4.37
2018-05-17T09:34:24.950Z,4.07
2018-05-17T09:36:53.324Z,3.83
2018-05-17T09:39:20.967Z,3.70
2018-05-17T09:41:48.568Z,3.60
2018-05-17T09:44:16.162Z,3.80
2018-05-17T09:46:43.778Z,3.73
2018-05-17T09:49:12.150Z,3.83
2018-05-17T09:51:40.511Z,3.67
2018-05-17T09:54:08.126Z,3.40
2018-05-17T09:56:35.726Z,3.73
2018-05-17T09:59:03.326Z,3.27
2018-05-17T10:01:30.947Z,3.70
2018-05-17T10:03:58.550Z,3.53
2018-05-17T10:06:26.165Z,3.30
2018-05-17T10:08:53.871Z,3.20
2018-05-17T10:11:21.460Z,3.60
2018-05-17T10:13:49.062Z,3.83
2018-05-17T10:16:16.707Z,2.80
2018-05-17T10:18:44.362Z,2.50
2018-05-17T10:21:11.966Z,2.40
2018-05-17T10:23:39.594Z,2.00
2018-05-17T10:26:07.230Z,2.27
2018-05-17T10:28:34.838Z,2.03
2018-05-17T10:31:03.238Z,2.07
2018-05-17T10:33:30.838Z,1.80
2018-05-17T10:35:58.437Z,1.90
2018-05-17T10:38:26.810Z,2.37
2018-05-17T10:40:55.178Z,2.20
2018-05-17T10:43:22.796Z,2.00
2018-05-17T10:45:50.412Z,2.30
2018-05-17T10:48:18.036Z,2.57
2018-05-17T10:50:45.729Z,2.00
2018-05-17T10:53:14.110Z,2.00
2018-05-17T10:55:41.715Z,1.80
2018-05-17T10:58:09.312Z,1.47
2018-05-17T11:00:36.936Z,1.50
2018-05-17T11:03:04.546Z,1.60
2018-05-17T11:05:32.164Z,1.67
2018-05-17T11:07:59.769Z,1.70
2018-05-17T11:10:28.149Z,1.50
2018-05-17T11:12:56.513Z,1.50
2018-05-17T11:15:24.118Z,1.60
2018-05-17T11:17:51.721Z,1.50
2018-05-17T11:20:19.322Z,1.60
2018-05-17T11:22:46.986Z,1.73
2018-05-17T11:25:14.622Z,1.40
2018-05-17T11:27:42.226Z,1.40
2018-05-17T11:30:09.863Z,1.30
2018-05-17T11:32:38.222Z,1.50
2018-05-17T11:35:06.598Z,1.47
2018-05-17T11:37:34.218Z,1.33
2018-05-17T11:40:02.729Z,1.40
2018-05-17T11:42:30.339Z,1.30
2018-05-17T11:44:57.970Z,1.47
2018-05-17T11:47:25.582Z,1.60
2018-05-17T11:49:53.178Z,1.50
2018-05-17T11:52:20.799Z,1.53
2018-05-17T11:54:48.402Z,1.27
2018-05-17T11:57:16.022Z,1.30
2018-05-17T11:59:43.626Z,1.30
2018-05-17T12:02:12.002Z,1.10
2018-05-17T12:07:12.229Z,1.20
2018-05-17T12:09:39.806Z,1.40
2018-05-17T12:12:08.166Z,1.50
2018-05-17T12:14:35.786Z,1.57
2018-05-17T12:17:03.405Z,1.33
2018-05-17T12:19:31.778Z,1.20
2018-05-17T12:22:00.153Z,1.30
2018-05-17T12:24:27.756Z,1.30
2018-05-17T12:26:55.354Z,1.40
2018-05-17T12:29:22.970Z,1.20
2018-05-17T12:31:51.446Z,1.30
2018-05-17T12:34:18.993Z,1.30
2018-05-17T12:36:46.636Z,1.17
2018-05-17T12:39:14.306Z,1.23
2018-05-17T12:48:03.174Z,1.43
2018-05-17T12:50:30.826Z,1.37
2018-05-17T12:52:58.439Z,1.30
2018-05-17T12:55:26.078Z,1.37
2018-05-17T12:57:53.723Z,1.10
2018-05-17T13:00:21.330Z,1.10
2018-05-17T13:02:50.333Z,1.30
2018-05-17T13:05:23.781Z,1.20
2018-05-17T13:07:51.410Z,1.20
2018-05-17T13:10:19.903Z,1.37
2018-05-17T13:12:47.523Z,1.10
2018-05-17T13:15:15.132Z,1.47
2018-05-17T13:17:42.746Z,1.27
2018-05-17T13:20:10.389Z,1.10
2018-05-17T13:22:38.014Z,1.20
2018-05-17T13:25:05.635Z,1.20
2018-05-17T13:27:33.262Z,0.90
2018-05-17T13:30:00.919Z,1.10
2018-05-17T13:32:28.550Z,1.23
2018-05-17T13:34:56.204Z,0.80
2018-05-17T13:37:23.897Z,1.40
2018-05-17T13:39:52.286Z,1.30
2018-05-17T13:42:20.687Z,1.23
2018-05-17T13:44:48.319Z,1.20
2018-05-17T13:47:15.914Z,1.30
2018-05-17T13:49:43.531Z,1.30
2018-05-17T13:52:11.135Z,1.30
2018-05-17T13:54:38.738Z,1.40
2018-05-17T13:57:06.351Z,1.30
2018-05-17T13:59:33.950Z,1.20
2018-05-17T14:02:02.314Z,0.90
2018-05-17T14:04:29.936Z,1.13
2018-05-17T14:06:58.304Z,1.13
2018-05-17T14:09:25.912Z,1.30
2018-05-17T14:11:54.290Z,1.10
2018-05-17T14:14:22.898Z,1.27
2018-05-17T14:16:50.502Z,1.40
2018-05-17T14:19:18.135Z,1.20
2018-05-17T14:21:45.741Z,1.50
2018-05-17T14:24:13.351Z,1.27
2018-05-17T14:26:43.959Z,1.40
2018-05-17T14:38:54.863Z,1.60
2018-05-17T14:41:22.683Z,1.60
2018-05-17T14:50:49.008Z,1.20
2018-05-17T14:53:16.639Z,1.33
2018-05-17T14:55:45.066Z,1.50
2018-05-17T15:01:17.195Z,1.50
2018-05-17T15:03:44.762Z,1.57
2018-05-17T15:06:12.383Z,1.20
2018-05-17T15:08:40.070Z,1.10
2018-05-17T15:11:07.696Z,1.53
2018-05-17T15:13:35.298Z,1.20
2018-05-17T15:16:02.911Z,1.00
2018-05-17T15:18:30.526Z,1.03
2018-05-17T15:20:58.131Z,1.40
2018-05-17T15:23:25.744Z,1.00
2018-05-17T15:25:54.159Z,1.10
2018-05-17T15:28:21.792Z,1.10
2018-05-17T15:30:49.434Z,1.20
2018-05-17T15:33:17.822Z,1.10
2018-05-17T15:35:45.439Z,1.20
2018-05-17T15:38:13.038Z,1.20
2018-05-17T15:40:41.421Z,1.33
2018-05-17T15:43:09.788Z,1.30
2018-05-17T15:45:37.406Z,1.17
2018-05-17T15:48:07.600Z,1.30
2018-05-17T15:50:38.753Z,1.33
2018-05-17T15:53:06.379Z,1.43
2018-05-17T15:55:33.995Z,1.20
2018-05-17T15:58:01.713Z,1.30
2018-05-17T16:00:30.115Z,1.47
2018-05-17T16:02:57.718Z,1.57
2018-05-17T16:05:25.326Z,1.73
2018-05-17T16:07:54.687Z,1.90
2018-05-17T16:10:22.330Z,1.53
2018-05-17T16:12:49.935Z,1.53
2018-05-17T16:15:18.504Z,1.50
2018-05-17T16:17:45.945Z,1.60
2018-05-17T16:20:13.549Z,1.80
2018-05-17T16:22:41.292Z,1.87
2018-05-17T16:25:08.842Z,1.87
2018-05-17T16:27:36.475Z,1.70
2018-05-17T16:30:04.130Z,1.73
2018-05-17T16:32:31.756Z,1.80
2018-05-17T16:34:59.350Z,1.77
2018-05-17T16:37:26.990Z,1.67
2018-05-17T16:39:54.595Z,1.60
2018-05-17T16:42:22.194Z,1.77
2018-05-17T16:44:49.801Z,1.53
2018-05-17T16:47:17.444Z,1.30
2018-05-17T16:49:45.050Z,1.40
2018-05-17T16:52:13.434Z,1.40
2018-05-17T16:54:41.795Z,1.70
2018-05-17T16:57:09.391Z,1.50
2018-05-17T16:59:37.027Z,1.40
2018-05-17T17:02:04.771Z,1.30
2018-05-17T17:04:32.402Z,1.50
2018-05-17T17:07:00.153Z,1.40
2018-05-17T17:09:27.658Z,1.40
2018-05-17T17:11:56.206Z,1.43
2018-05-17T17:14:23.858Z,1.40
2018-05-17T17:16:52.218Z,1.40
2018-05-17T17:21:51.621Z,1.17
2018-05-17T17:24:19.225Z,1.40
2018-05-17T17:26:46.826Z,1.10
2018-05-17T17:29:14.478Z,1.00
2018-05-17T17:31:42.090Z,1.57
2018-05-17T17:34:09.691Z,1.57
2018-05-17T17:36:38.146Z,1.40
2018-05-17T17:39:06.551Z,1.07
2018-05-17T17:41:34.167Z,1.23
2018-05-17T17:44:02.613Z,1.40
2018-05-17T17:46:30.982Z,1.40
2018-05-17T17:48:58.598Z,1.27
2018-05-17T17:51:26.245Z,1.30
2018-05-17T17:53:54.618Z,1.33
2018-05-17T17:56:22.220Z,1.47
2018-05-17T17:58:49.842Z,1.50
2018-05-17T18:01:17.454Z,1.20
2018-05-17T18:03:45.110Z,1.50
2018-05-17T18:06:16.735Z,1.43
2018-05-17T18:11:16.125Z,1.33
2018-05-17T18:13:43.767Z,1.40
2018-05-17T18:18:43.941Z,1.40
2018-05-17T18:21:12.518Z,1.30
2018-05-17T18:23:41.842Z,1.30
2018-05-17T18:26:09.516Z,1.50
2018-05-17T18:28:37.175Z,1.20
2018-05-17T18:31:05.722Z,1.10
2018-05-17T18:33:33.386Z,1.47
2018-05-17T18:36:01.029Z,1.57
2018-05-17T18:38:28.670Z,1.50
2018-05-17T18:40:56.307Z,1.40
2018-05-17T18:43:23.937Z,1.50
2018-05-17T18:45:51.623Z,1.20
2018-05-17T18:48:19.295Z,1.33
2018-05-17T18:50:46.955Z,1.00
2018-05-17T18:53:14.612Z,1.10
2018-05-17T18:55:42.283Z,1.23
2018-05-17T18:58:09.969Z,1.30
2018-05-17T19:00:38.348Z,1.57
2018-05-17T19:03:06.775Z,1.40
2018-05-17T19:08:06.190Z,1.60
2018-05-17T19:10:33.794Z,1.23
2018-05-17T19:15:33.199Z,1.67
2018-05-17T19:18:00.829Z,1.20
2018-05-17T19:20:28.487Z,1.43
2018-05-17T19:22:56.161Z,1.70
2018-05-17T19:25:24.347Z,1.60
2018-05-17T19:27:51.988Z,1.50
2018-05-17T19:30:19.699Z,1.57
2018-05-17T19:32:48.099Z,1.50
2018-05-17T19:35:16.478Z,1.33
2018-05-17T19:37:44.114Z,1.70
2018-05-17T19:40:12.518Z,1.73
2018-05-17T19:42:40.191Z,1.47
2018-05-17T19:45:07.858Z,1.53
2018-05-17T19:47:35.492Z,1.57
2018-05-17T19:50:03.107Z,1.90
2018-05-17T19:52:30.792Z,1.33
2018-05-17T19:54:58.510Z,1.70
2018-05-17T19:57:26.119Z,1.60
2018-05-17T19:59:53.758Z,1.10
2018-05-17T20:02:21.359Z,1.43
2018-05-17T20:04:49.832Z,1.40
2018-05-17T20:07:17.510Z,1.23
2018-05-17T20:09:45.894Z,1.47
2018-05-17T20:12:14.341Z,1.30
2018-05-17T20:14:41.994Z,1.43
2018-05-17T20:17:09.671Z,1.40
2018-05-17T20:19:37.317Z,1.37
2018-05-17T20:22:05.738Z,1.10
2018-05-17T20:24:34.088Z,1.10
2018-05-17T20:27:01.797Z,1.20
2018-05-17T20:29:29.422Z,1.40
2018-05-17T20:32:01.129Z,1.27
2018-05-17T20:34:29.615Z,1.37
2018-05-17T20:39:29.622Z,1.10
2018-05-17T20:41:57.239Z,1.03
2018-05-17T20:44:25.037Z,1.70
2018-05-17T20:46:52.731Z,1.23
2018-05-17T20:49:20.334Z,1.33
2018-05-17T20:51:48.710Z,1.53
2018-05-17T20:54:17.251Z,1.07
2018-05-17T20:56:44.849Z,1.40
2018-05-17T20:59:13.382Z,0.83
2018-05-17T21:01:43.114Z,1.50
2018-05-17T21:04:12.119Z,0.90
2018-05-17T21:06:39.735Z,1.13
2018-05-17T21:09:07.410Z,0.90
2018-05-17T21:11:35.775Z,1.20
2018-05-17T21:14:03.403Z,1.00
2018-05-17T21:16:31.054Z,1.10
2018-05-17T21:18:58.671Z,1.30
2018-05-17T21:21:30.711Z,0.87
2018-05-17T21:23:58.353Z,1.33
2018-05-17T21:26:28.698Z,1.27
2018-05-17T21:28:56.355Z,0.93
2018-05-17T21:31:28.802Z,1.10
2018-05-17T21:33:56.483Z,0.97
2018-05-17T21:36:24.151Z,1.23
2018-05-17T21:38:51.766Z,1.27
2018-05-17T21:41:19.658Z,1.33
2018-05-17T21:43:49.254Z,1.23
2018-05-17T21:46:17.712Z,1.00
2018-05-17T21:48:45.330Z,1.07
2018-05-17T21:51:13.711Z,0.90
2018-05-17T21:53:41.335Z,1.10
2018-05-17T21:56:09.828Z,0.97
2018-05-17T21:58:38.192Z,1.00
2018-05-17T22:01:06.414Z,1.00
2018-05-17T22:03:34.833Z,1.07
2018-05-17T22:06:03.003Z,0.90
2018-05-17T22:08:30.654Z,1.00
2018-05-17T22:10:58.353Z,1.00
2018-05-17T22:13:27.727Z,0.97
2018-05-17T22:15:55.335Z,0.83
2018-05-17T22:18:22.946Z,1.00
2018-05-17T22:20:50.587Z,1.27
2018-05-17T22:23:18.218Z,1.47
2018-05-17T22:25:45.848Z,1.40
2018-05-17T22:28:13.464Z,0.90
2018-05-17T22:30:41.079Z,1.03
2018-05-17T22:33:10.402Z,0.90
2018-05-17T22:35:38.087Z,1.33
2018-05-17T22:38:05.695Z,1.17
2018-05-17T22:40:33.309Z,1.03
2018-05-17T22:43:00.976Z,0.90
2018-05-17T22:45:28.663Z,1.00
2018-05-17T22:47:59.638Z,1.10
2018-05-17T22:50:27.259Z,1.30
2018-05-17T22:52:54.920Z,1.03
2018-05-17T22:55:22.947Z,1.00
2018-05-17T22:58:03.331Z,1.23
2018-05-17T23:00:30.944Z,1.00
2018-05-17T23:02:59.314Z,0.80
2018-05-17T23:05:26.926Z,1.30
2018-05-17T23:07:54.808Z,1.03
2018-05-17T23:10:22.410Z,1.00
2018-05-17T23:12:50.097Z,1.10
2018-05-17T23:15:17.719Z,1.03
2018-05-17T23:17:45.318Z,0.97
2018-05-17T23:20:12.963Z,1.83
2018-05-17T23:22:40.576Z,1.17
2018-05-17T23:25:09.131Z,1.10
2018-05-17T23:27:36.835Z,1.20
2018-05-17T23:30:04.446Z,1.13
2018-05-17T23:32:32.042Z,1.10
2018-05-17T23:34:59.766Z,1.00
2018-05-17T23:37:27.375Z,1.27
2018-05-17T23:39:55.846Z,1.10
2018-05-17T23:42:23.477Z,1.40
2018-05-17T23:44:51.066Z,1.00
2018-05-17T23:47:18.711Z,1.30
2018-05-17T23:49:46.379Z,1.17
2018-05-17T23:52:13.993Z,1.53
2018-05-17T23:54:41.597Z,1.20
2018-05-17T23:57:16.291Z,1.37
2018-05-17T23:59:50.450Z,1.07
